الصفحة الرئيسية
METAR-TAF:

METAR-TAF

مطار :

مطار شرم الشيخ الدولي

شرم الشيخ, مصر

دائرة عرض: 27-58N, خط طول: 034-23E, ارتفاع: 50 متر

مراقبة الطقس الحالي

تاريخ ووقت الإصدار 1ساعة و 26 دقيقة قبل الساعة 02:00UTC
ريح 6 عقدة من الشمال/الشمال الغربي
درجة الحرارة 17°درجة مئوية
الرطوبة 63%
ضغط 1018 hPa
الرؤية 10 كم أو أكثر
الغيوم لا تقل 1500 م ولا وجود لمزنة ركامية السحاب الأسود

METAR: HESH 120200Z 34006KT CAVOK 17/10 Q1018 NOSIG

زمن: 05:26 (03:26 UTC)

توقعات

تاريخ ووقت الإصدار 4ساعات و 26 دقيقة قبل الساعة 23:00UTC
التوقعات صالحة من12 الساعة 00 UTC إلى 13 الساعة 06 UTC
ريح 10 عقدة من الشمال الغربي
الرؤية 10 كم أو أكثر
الغيوم لا تقل 1500 م ولا وجود لمزنة ركامية السحاب الأسود

TAF: HESH 112300Z 1200/1306 31010KT CAVOK

أرصاد الطقس والتوقعات من أكثر من 4000 مطار (تقارير الطقس للمطار METAR والتنبؤ بالطقس بالمطارTAF).

المحطات المتاحة هي النقط الصفراء والحمراء على الخريطة.

حرك المؤشر فوق النقطة لمعرفة اسم المحطة.

ثم انقر لمعرفة أرصاد وتوقعات الطقس.

لتغيير الخارطة: اضغط على الأزرار الخضراء مع رمز الصليب الأسود للتكبير. على الزر الأخضر مع شرطة للتصغير، أو على الأسهم الخضراء للخرائط المجاورة.


METAR-TAF: